AirNav   Air Wisconsin Up To $57,000 Bonus
 
 1532 users online  

76PN Heritage Valley Beaver Heliport
Beaver, Pennsylvania, USA

GOING TO BEAVER?


FAA INFORMATION EFFECTIVE 05 DECEMBER 2019

Location

FAA Identifier: 76PN
Lat/Long: 40-42-40.8200N 080-19-18.8200W
40-42.680333N 080-19.313667W
40.7113389,-80.3218944
(estimated)
Elevation: 1132 ft. / 345.0 m (surveyed)
Variation: 07W (1985)
From city: 1 mile NW of BEAVER, PA
Time zone: UTC -5 (UTC -4 during Daylight Saving Time)
Zip code: 15009

Heliport Operations

Heliport use: Private use. Permission required prior to landing
Activation date: 02/1982
Control tower: no
ARTCC: CLEVELAND CENTER
FSS: ALTOONA FLIGHT SERVICE STATION
Attendance: CONTINUOUS
Wind indicator: yes
Segmented circle: no
Lights: FOR HELI LGTS CALL 412-728-7000.
Beacon: RED/CLEAR/GREEN. FOR ROTG BCN CALL 412-728-7000.

Heliport Communications

WX AWOS-3PT at BVI (5 nm NW): 118.35 (724-843-1024)
WX AWOS-3PT at PJC (9 nm NE): 118.45 (724-452-5304)
WX ASOS at PIT (14 nm S): PHONE 412-472-0145
WX AWOS-3PT at BTP (17 nm E): 121.450 (724-586-6434)
WX AWOS-3PT at UCP (19 nm N): 124.175 ((724) 652-4184)

Nearby radio navigation aids

VOR radial/distance  VOR name  Freq  Var
EWCr224/8.5ELLWOOD CITY VOR/DME115.8008W
AGCr343/29.0ALLEGHENY VOR/DME110.0009W
HLGr030/29.3WHEELING VOR/DME112.2007W

 
NDB name  Hdg/Dist  Freq  Var  ID
CASTLE176/19.227209WUCP ..- -.-. .--.

Heliport Services

Runway Information

Helipad H1

Dimensions: 65 x 65 ft. / 20 x 20 m
Surface: concrete
Runway edge lights: low intensity
Latitude: 40-42.680333N
INGRESS/EGRESS 270/090 AND 020/200.
Longitude: 080-19.313667W
Elevation: 1132.0 ft.
Traffic pattern: leftleft
Markings: basic

Heliport Ownership and Management from official FAA records

Ownership: Privately-owned
Owner: VALLEY MEDICAL FACILITIES INC.
1000 DUTCH RIDGE ROAD
BEAVER, PA 15009
Phone 412-728-7000
Manager: NORMAN F MITRY - CEO
1000 DUTCH RIDGE ROAD
BEAVER, PA 15009
Phone 412-728-7000

Additional Remarks

A52-H1 17 FT BLDG 120 FT N; PLINE ONE MILE N, S, E, W OF HELI.
HEL PRKG 36 FT DIAM W SIDE HELI.
TLOF 40 FT DIAM; FATO 65 FT DIAM
HEL PARKING SPOT 36 FT DIAM ON W SIDE OF HELI.
TLOF 40 FT DIAM/FATO 65 FT DIAM.
FOR CD CTC PITTSBURGH APCH AT 412-472-5591

Instrument Procedures

There are no published instrument procedures at 76PN.

Some nearby airports with instrument procedures:

KBVI - Beaver County Airport (5 nm NW)
KPJC - Zelienople Municipal Airport (9 nm NE)
KPIT - Pittsburgh International Airport (14 nm S)
02G - Columbiana County Airport (15 nm W)
KBTP - Pittsburgh/Butler Regional Airport (17 nm E)
KUCP - New Castle Municipal Airport (19 nm N)
 
Loc | Ops | Rwys | IFR | FBO | Links
Com | Nav | Svcs | Stats | Notes
Area around 76PN (Heritage Valley Beaver Heliport)
 
Road maps at: MapQuest Bing Google
 
Aerial photo
No photo
 
Sectional chart

 
Airport distance calculator
Flying to Heritage Valley Beaver Heliport? Find the distance to fly.

From to 76PN

Sunrise and sunset
Times for 05-Dec-2019
 Local
(UTC-5)
 Zulu
(UTC)
Morning civil twilight07:0012:00
Sunrise07:3112:31
Sunset16:5321:53
Evening civil twilight17:2422:24

Current date and time
Zulu (UTC)  05-Dec-2019 16:52:34
Local (UTC-5)  05-Dec-2019 11:52:34
 
METAR
KBVI 
5nm NW 
051636Z AUTO 27012G17KT 10SM SCT033 OVC040 02/M03 A3000 RMK AO2 T00231035
KPJC 
9nm NE 
051624Z AUTO RMK AO2 TSNO PWINO
KPIT 
13nm S 
051551Z 28012G22KT 10SM FEW032 OVC044 02/M06 A3000 RMK AO2 SLP178 T00171056
KBTP 
17nm E 
051556Z AUTO 26010G17KT 10SM FEW029 BKN047 01/M04 A2999 RMK AO2 SLP172 T00111039 FZRANO
KUCP 
19nm N 
051556Z AUTO 26011KT 10SM OVC042 02/M03 A3000 RMK AO2 SLP185 T00171033
TAF
KBVI 
5nm NW 
051319Z 0513/0612 28008G19KT P6SM OVC040 FM052200 28008KT P6SM BKN120 FM060900 21006KT P6SM OVC080 WS020/25035KT
KPIT 
13nm S 
051501Z 0515/0618 28010G18KT P6SM OVC045 FM052200 28009KT P6SM BKN120 FM060900 21006KT P6SM OVC080 WS020/25035KT FM061500 25005KT P6SM OVC035
NOTAMs
Click for the latest NOTAMs
NOTAMs are issued by the DoD/FAA and will open in a separate window not controlled by AirNav.

 

 
 

Would you like to see your business listed on this page?

 If your business provides an interesting product or service to pilots, flight crews, aircraft, or users of the Heritage Valley Beaver Heliport, you should consider listing it here.  To start the listing process, click on the button below
 
Add a business
 

Other Pages about Heritage Valley Beaver Heliport

Update a link
 
Copyright © AirNav, LLC. All rights reserved. Privacy Policy  Contact